Time;durP1;ratioP1;P1;durP2;ratioP2;P2;SDS_P1;SDS_P2;PMS_P1;PMS_P2;Temp;Humidity;BMP_temperature;BMP_pressure;BME280_temperature;BME280_humidity;BME280_pressure;Samples;Min_cycle;Max_cycle;Signal;HPM_P1;HPM_P2
2023/08/29 00:01:10;;;;;;;3.33;2.50;;;;;;;13.34;100.00;100240.09;5981851;29;20079;-94
2023/08/29 00:04:12;;;;;;;2.70;2.15;;;;;;;13.28;100.00;100232.91;5990288;29;20312;-94
2023/08/29 00:07:16;;;;;;;4.32;2.50;;;;;;;13.22;100.00;100234.28;5989936;29;20078;-94
2023/08/29 00:10:17;;;;;;;4.90;2.45;;;;;;;13.19;100.00;100233.75;5975035;29;20042;-93
2023/08/29 00:13:20;;;;;;;3.08;2.78;;;;;;;13.17;100.00;100212.28;5971738;29;20151;-94
2023/08/29 00:16:22;;;;;;;2.92;2.55;;;;;;;13.13;100.00;100209.97;5986264;29;20061;-94
2023/08/29 00:19:24;;;;;;;3.33;2.60;;;;;;;13.14;100.00;100198.63;5976561;29;20077;-94
2023/08/29 00:22:26;;;;;;;3.30;2.90;;;;;;;13.17;100.00;100183.69;5976682;29;20054;-93
2023/08/29 00:25:28;;;;;;;3.90;2.50;;;;;;;13.17;100.00;100183.69;5973721;29;20053;-93
2023/08/29 00:28:29;;;;;;;3.80;2.60;;;;;;;13.17;100.00;100183.69;5974405;29;20495;-93
2023/08/29 00:31:31;;;;;;;3.28;2.92;;;;;;;13.19;100.00;100180.00;5982638;29;20137;-93
2023/08/29 00:34:34;;;;;;;3.63;2.30;;;;;;;13.20;100.00;100180.81;5970594;29;20043;-93
2023/08/29 00:37:35;;;;;;;3.72;3.20;;;;;;;13.20;100.00;100193.81;5999307;29;20054;-93
2023/08/29 00:40:37;;;;;;;4.13;3.17;;;;;;;13.16;100.00;100203.66;5977410;29;20127;-93
2023/08/29 00:43:39;;;;;;;4.22;2.75;;;;;;;13.13;100.00;100219.56;5980645;29;20058;-93
2023/08/29 00:46:42;;;;;;;3.28;2.75;;;;;;;13.09;100.00;100228.59;5965597;29;20089;-93
2023/08/29 00:49:44;;;;;;;3.33;2.60;;;;;;;13.07;100.00;100226.16;5974254;29;20142;-92
2023/08/29 00:52:49;;;;;;;5.13;2.67;;;;;;;13.02;100.00;100233.56;5958877;29;20494;-93
2023/08/29 00:55:51;;;;;;;3.03;2.83;;;;;;;12.99;100.00;100252.03;5974513;29;20135;-93
2023/08/29 00:58:53;;;;;;;4.10;3.10;;;;;;;12.97;100.00;100258.31;5985035;29;20505;-93
2023/08/29 01:01:55;;;;;;;3.78;2.60;;;;;;;12.90;100.00;100258.09;5972120;29;20080;-93
2023/08/29 01:04:57;;;;;;;3.15;2.85;;;;;;;12.88;100.00;100266.03;5975708;29;20165;-93
2023/08/29 01:08:00;;;;;;;4.32;2.70;;;;;;;12.85;100.00;100261.13;5977125;29;20073;-93
2023/08/29 01:11:34;;;;;;;3.33;2.67;;;;;;;12.79;100.00;100255.66;5972615;29;20043;-93
2023/08/29 01:14:43;;;;;;;4.15;2.78;;;;;;;12.71;100.00;100258.97;5959382;29;20051;-94
2023/08/29 01:17:49;;;;;;;3.13;2.60;;;;;;;12.67;100.00;100262.81;5968013;29;20061;-93
2023/08/29 01:20:59;;;;;;;2.80;2.60;;;;;;;12.63;100.00;100249.28;5989502;29;20050;-92
2023/08/29 01:24:44;;;;;;;3.20;2.88;;;;;;;12.61;100.00;100243.41;5973151;29;20091;-94
2023/08/29 01:27:46;;;;;;;2.75;2.55;;;;;;;12.55;100.00;100248.38;5906256;30;20544;-93
2023/08/29 01:30:49;;;;;;;3.35;2.42;;;;;;;12.52;100.00;100246.03;5915462;29;20051;-92
2023/08/29 01:33:53;;;;;;;3.05;2.70;;;;;;;12.51;100.00;100245.22;5903022;30;20103;-93
2023/08/29 01:36:55;;;;;;;2.70;2.50;;;;;;;12.52;100.00;100246.88;5899722;29;20168;-92
2023/08/29 01:39:56;;;;;;;5.45;3.20;;;;;;;12.57;100.00;100246.44;5904912;30;20095;-93
2023/08/29 01:42:58;;;;;;;3.45;3.15;;;;;;;12.57;100.00;100251.63;5900214;30;20166;-93
2023/08/29 01:46:00;;;;;;;3.20;2.90;;;;;;;12.61;100.00;100261.59;5924655;30;20064;-92
2023/08/29 01:49:03;;;;;;;3.17;2.80;;;;;;;12.62;100.00;100257.22;5924650;30;20524;-92
2023/08/29 01:52:05;;;;;;;2.58;2.38;;;;;;;12.58;100.00;100256.69;5925072;29;20059;-93
2023/08/29 01:55:07;;;;;;;3.13;2.45;;;;;;;12.55;100.00;100256.97;5928465;30;20052;-92
2023/08/29 01:58:09;;;;;;;5.30;3.15;;;;;;;12.52;100.00;100251.22;5928463;30;20107;-93
2023/08/29 02:01:11;;;;;;;4.53;2.80;;;;;;;12.46;100.00;100252.63;5912012;29;20208;-93
2023/08/29 02:04:24;;;;;;;2.80;2.35;;;;;;;12.42;100.00;100253.84;5940907;29;20059;-93
2023/08/29 02:07:26;;;;;;;3.65;2.60;;;;;;;12.39;100.00;100265.34;5979417;29;20084;-93
2023/08/29 02:10:29;;;;;;;3.38;2.63;;;;;;;12.31;100.00;100256.63;5980902;29;20046;-93
2023/08/29 02:13:31;;;;;;;3.55;2.55;;;;;;;12.27;100.00;100261.25;5976490;29;20860;-92
2023/08/29 02:16:32;;;;;;;3.10;2.78;;;;;;;12.27;100.00;100263.84;5976964;29;20050;-93
2023/08/29 02:19:34;;;;;;;3.08;2.75;;;;;;;12.26;100.00;100263.03;5961967;29;20533;-93
2023/08/29 02:22:36;;;;;;;3.80;2.88;;;;;;;12.34;100.00;100267.53;5980126;29;20387;-93
2023/08/29 02:25:38;;;;;;;3.22;2.90;;;;;;;12.35;100.00;100256.19;5976386;29;20133;-92
2023/08/29 02:28:40;;;;;;;3.30;3.00;;;;;;;12.38;100.00;100257.69;5972540;29;20390;-93
2023/08/29 02:31:42;;;;;;;4.55;3.00;;;;;;;12.38;100.00;100253.31;5975330;29;20666;-93
2023/08/29 02:34:43;;;;;;;3.90;3.03;;;;;;;12.40;100.00;100253.19;5978192;29;20042;-93
2023/08/29 02:37:45;;;;;;;2.90;2.67;;;;;;;12.33;100.00;100260.72;5964828;29;20062;-93
2023/08/29 02:40:47;;;;;;;3.20;2.88;;;;;;;12.31;100.00;100254.84;5965041;29;20046;-93
2023/08/29 02:43:49;;;;;;;4.78;3.20;;;;;;;12.35;100.00;100250.19;5973838;29;20053;-92
2023/08/29 02:46:51;;;;;;;3.08;2.88;;;;;;;12.32;100.00;100250.47;5963020;29;20411;-92
2023/08/29 02:49:53;;;;;;;6.30;3.20;;;;;;;12.29;100.00;100235.97;5986154;29;20050;-94
2023/08/29 02:52:55;;;;;;;6.97;3.50;;;;;;;12.26;100.00;100244.88;5973189;29;20053;-93
2023/08/29 02:55:57;;;;;;;5.22;3.42;;;;;;;12.25;100.00;100243.25;5970128;29;20135;-92
2023/08/29 02:58:59;;;;;;;3.28;2.63;;;;;;;12.22;100.00;100240.09;5978042;29;20063;-93
2023/08/29 03:02:02;;;;;;;3.15;2.85;;;;;;;12.18;100.00;100229.19;5957146;29;20054;-93
2023/08/29 03:05:04;;;;;;;3.13;2.83;;;;;;;12.18;100.00;100225.78;5977798;29;20049;-93
2023/08/29 03:08:06;;;;;;;5.05;3.30;;;;;;;12.18;100.00;100236.16;5976603;29;20057;-94
2023/08/29 03:11:09;;;;;;;3.90;2.90;;;;;;;12.17;100.00;100247.47;5978280;29;20046;-93
2023/08/29 03:14:11;;;;;;;5.88;2.90;;;;;;;12.10;100.00;100252.41;5968738;29;20178;-93
2023/08/29 03:17:12;;;;;;;3.72;3.42;;;;;;;12.10;100.00;100255.00;5978407;29;20079;-93
2023/08/29 03:20:15;;;;;;;3.63;3.10;;;;;;;12.13;100.00;100259.91;5978345;29;20053;-93
2023/08/29 03:23:17;;;;;;;3.80;3.25;;;;;;;12.13;100.00;100252.13;5961614;29;20055;-93
2023/08/29 03:26:19;;;;;;;4.18;3.40;;;;;;;12.15;100.00;100242.44;5983647;29;20141;-94
2023/08/29 03:29:21;;;;;;;5.93;3.30;;;;;;;12.24;100.00;100240.78;5978469;29;20058;-93
2023/08/29 03:32:23;;;;;;;3.90;3.50;;;;;;;12.25;100.00;100235.44;5967481;29;20051;-93
2023/08/29 03:35:25;;;;;;;3.65;3.35;;;;;;;12.20;100.00;100235.06;5972699;29;20065;-93
2023/08/29 03:38:28;;;;;;;5.18;3.95;;;;;;;12.23;100.00;100216.59;5965414;29;20054;-93
2023/08/29 03:41:30;;;;;;;4.88;3.95;;;;;;;12.32;100.00;100211.53;5973302;29;20486;-93
2023/08/29 03:44:32;;;;;;;5.13;4.18;;;;;;;12.37;100.00;100199.78;5963833;29;20043;-93
2023/08/29 03:47:35;;;;;;;6.35;4.45;;;;;;;12.40;100.00;100207.28;5965620;29;20064;-93
2023/08/29 03:50:38;;;;;;;7.45;4.43;;;;;;;12.52;100.00;100202.75;5971323;29;20046;-93
2023/08/29 03:53:40;;;;;;;5.65;3.70;;;;;;;12.52;100.00;100207.94;5972629;29;20134;-94
2023/08/29 03:56:44;;;;;;;5.18;4.28;;;;;;;12.61;100.00;100198.47;5963009;29;20058;-93
2023/08/29 03:59:46;;;;;;;5.75;4.07;;;;;;;12.65;100.00;100187.66;5961842;29;20055;-93
2023/08/29 04:02:48;;;;;;;3.85;3.53;;;;;;;12.66;100.00;100184.09;5975245;29;20057;-94
2023/08/29 04:05:50;;;;;;;4.80;3.63;;;;;;;12.69;100.00;100185.56;5978060;29;20185;-93
2023/08/29 04:08:54;;;;;;;5.45;3.72;;;;;;;12.67;100.00;100183.16;5973426;29;20058;-93
2023/08/29 04:11:56;;;;;;;6.05;4.20;;;;;;;12.69;100.00;100177.78;5985533;29;20050;-93
2023/08/29 04:14:58;;;;;;;4.47;3.90;;;;;;;12.69;100.00;100170.84;5978244;29;20137;-93
2023/08/29 04:18:02;;;;;;;4.80;4.28;;;;;;;12.70;100.00;100172.47;5983761;29;20451;-93
2023/08/29 04:21:05;;;;;;;6.28;4.38;;;;;;;12.78;100.00;100174.34;5985164;29;20533;-92
2023/08/29 04:24:07;;;;;;;7.72;4.13;;;;;;;12.72;100.00;100174.94;5983460;29;20050;-93
2023/08/29 04:27:09;;;;;;;5.68;4.65;;;;;;;12.67;100.00;100177.94;5974427;29;20050;-94
2023/08/29 04:30:11;;;;;;;8.00;4.97;;;;;;;12.59;100.00;100175.22;5986268;29;20117;-93
2023/08/29 04:33:12;;;;;;;5.28;4.78;;;;;;;12.64;100.00;100172.22;5969724;29;20508;-93
2023/08/29 04:36:18;;;;;;;5.65;4.47;;;;;;;12.62;100.00;100164.56;5996166;29;20050;-93
2023/08/29 04:39:21;;;;;;;7.75;4.82;;;;;;;12.61;100.00;100156.91;5978374;29;20050;-93
2023/08/29 04:42:22;;;;;;;9.57;5.00;;;;;;;12.58;100.00;100157.22;5970447;29;20062;-94
2023/08/29 04:45:24;;;;;;;5.72;4.97;;;;;;;12.58;100.00;100159.81;5986299;29;20053;-93
2023/08/29 04:48:26;;;;;;;5.78;4.78;;;;;;;12.56;100.00;100159.13;5982220;29;20512;-93
2023/08/29 04:51:28;;;;;;;7.43;4.57;;;;;;;12.53;100.00;100164.63;5981183;29;20332;-93
2023/08/29 04:54:30;;;;;;;5.22;4.60;;;;;;;12.54;100.00;100161.03;5971690;29;20347;-93
2023/08/29 04:57:33;;;;;;;5.75;5.18;;;;;;;12.49;100.00;100161.47;5973582;29;20169;-93
2023/08/29 05:00:36;;;;;;;6.53;4.75;;;;;;;12.50;100.00;100171.72;5983167;29;20591;-93
2023/08/29 05:03:38;;;;;;;6.07;4.90;;;;;;;12.63;100.00;100171.41;5969987;29;20058;-94
2023/08/29 05:06:40;;;;;;;5.85;5.10;;;;;;;12.66;100.00;100167.69;5965284;29;20125;-93
2023/08/29 05:09:42;;;;;;;9.07;5.28;;;;;;;12.63;100.00;100171.41;5960504;29;20050;-93
2023/08/29 05:12:44;;;;;;;6.63;5.15;;;;;;;12.67;100.00;100166.72;5989353;29;20176;-93
2023/08/29 05:15:46;;;;;;;6.00;5.40;;;;;;;12.78;100.00;100173.53;5982193;29;20077;-93
2023/08/29 05:18:48;;;;;;;5.60;5.03;;;;;;;12.82;100.00;100180.03;5971516;29;20461;-94
2023/08/29 05:21:50;;;;;;;6.35;5.28;;;;;;;12.89;100.00;100186.31;5983058;29;20751;-93
2023/08/29 05:24:52;;;;;;;6.25;5.30;;;;;;;12.96;100.00;100182.16;5981855;29;20118;-93
2023/08/29 05:27:54;;;;;;;6.00;5.05;;;;;;;12.99;100.00;100194.88;5983723;29;20043;-93
2023/08/29 05:30:56;;;;;;;8.20;5.72;;;;;;;13.01;100.00;100199.94;5975882;29;20184;-94
2023/08/29 05:33:58;;;;;;;5.82;5.28;;;;;;;13.04;100.00;100204.81;5982407;29;20050;-92
2023/08/29 05:37:00;;;;;;;7.32;5.47;;;;;;;13.06;100.00;100205.50;5968318;29;20171;-93
2023/08/29 05:40:03;;;;;;;6.00;4.95;;;;;;;13.09;100.00;100203.44;5968928;29;20042;-93
2023/08/29 05:43:05;;;;;;;6.82;4.97;;;;;;;13.13;100.00;100198.75;5980820;29;20054;-93
2023/08/29 05:46:07;;;;;;;8.60;5.28;;;;;;;13.14;100.00;100201.22;5974657;29;20046;-93
2023/08/29 05:49:09;;;;;;;6.13;4.95;;;;;;;13.28;100.00;100194.72;5982533;29;20046;-92
2023/08/29 05:52:11;;;;;;;7.43;5.43;;;;;;;13.25;100.00;100186.41;5979350;29;20046;-94
2023/08/29 05:55:13;;;;;;;6.65;5.60;;;;;;;13.31;100.00;100193.63;5982007;29;20096;-93
2023/08/29 05:58:15;;;;;;;7.10;6.00;;;;;;;13.40;100.00;100187.53;5976534;29;20050;-93
2023/08/29 06:01:17;;;;;;;7.60;5.60;;;;;;;13.50;100.00;100190.06;5977379;29;20051;-93
2023/08/29 06:04:19;;;;;;;6.90;5.97;;;;;;;13.47;100.00;100175.59;5975106;29;20047;-92
2023/08/29 06:07:21;;;;;;;7.30;5.50;;;;;;;13.52;100.00;100169.94;5970488;29;20451;-93
2023/08/29 06:10:23;;;;;;;5.78;5.07;;;;;;;13.54;100.00;100176.63;5969379;29;20054;-93
2023/08/29 06:13:25;;;;;;;6.43;5.53;;;;;;;13.57;100.00;100173.72;5993853;29;20054;-93
2023/08/29 06:16:27;;;;;;;8.63;5.65;;;;;;;13.58;100.00;100175.34;5966790;29;20047;-94
2023/08/29 06:19:31;;;;;;;8.15;5.78;;;;;;;13.55;100.00;100167.84;5963353;29;20061;-93
2023/08/29 06:22:33;;;;;;;7.32;6.00;;;;;;;13.54;100.00;100176.63;5978852;29;20055;-94
2023/08/29 06:25:35;;;;;;;6.47;5.88;;;;;;;13.60;100.00;100177.81;5971488;29;20399;-93
2023/08/29 06:28:37;;;;;;;8.02;5.75;;;;;;;13.68;100.00;100179.66;5971736;29;20132;-94
2023/08/29 06:31:41;;;;;;;7.35;6.45;;;;;;;13.67;100.00;100176.25;5980075;29;20049;-93
2023/08/29 06:34:43;;;;;;;7.40;5.93;;;;;;;13.71;100.00;100176.75;5968392;29;20150;-93
2023/08/29 06:37:44;;;;;;;7.65;6.55;;;;;;;13.70;100.00;100167.34;5970692;29;20043;-93
2023/08/29 06:40:53;;;;;;;9.73;6.57;;;;;;;13.70;100.00;100169.94;5970579;29;20054;-93
2023/08/29 06:43:55;;;;;;;9.18;6.47;;;;;;;13.74;100.00;100166.88;5969403;29;20054;-93
2023/08/29 06:46:57;;;;;;;8.75;6.40;;;;;;;13.84;100.00;100176.38;5959989;29;20051;-93
2023/08/29 06:50:00;;;;;;;8.73;6.40;;;;;;;13.92;100.00;100169.44;5971583;29;20075;-93
2023/08/29 06:53:03;;;;;;;9.70;6.55;;;;;;;14.03;100.00;100176.19;5973537;29;20042;-93
2023/08/29 06:56:05;;;;;;;10.52;6.40;;;;;;;14.25;100.00;100181.88;5996965;29;20046;-93
2023/08/29 06:59:07;;;;;;;9.05;7.00;;;;;;;14.38;100.00;100180.50;5981275;29;20106;-93
2023/08/29 07:02:09;;;;;;;6.85;6.13;;;;;;;14.49;100.00;100176.00;5981398;29;20046;-94
2023/08/29 07:05:12;;;;;;;9.13;6.90;;;;;;;14.53;100.00;100183.34;5981049;29;20171;-93
2023/08/29 07:08:14;;;;;;;8.95;6.50;;;;;;;14.58;100.00;100182.88;5971400;29;20069;-94
2023/08/29 07:11:16;;;;;;;10.10;6.95;;;;;;;14.67;100.00;100181.97;5982518;29;20055;-94
2023/08/29 07:14:18;;;;;;;8.43;6.70;;;;;;;14.70;100.00;100180.84;5975974;29;20057;-93
2023/08/29 07:17:20;;;;;;;8.48;7.10;;;;;;;14.75;100.00;100181.16;5978637;29;20160;-94
2023/08/29 07:20:22;;;;;;;7.78;6.57;;;;;;;14.91;100.00;100175.22;5977067;29;20077;-93
2023/08/29 07:23:24;;;;;;;9.60;7.28;;;;;;;15.06;100.00;100174.44;5979095;29;20058;-93
2023/08/29 07:26:26;;;;;;;7.32;6.60;;;;;;;15.26;100.00;100171.56;5949438;29;20058;-93
2023/08/29 07:29:27;;;;;;;9.52;7.38;;;;;;;15.37;100.00;100170.44;5972592;29;20048;-95
2023/08/29 07:32:30;;;;;;;11.88;7.70;;;;;;;15.47;100.00;100165.88;5980730;29;20081;-92
2023/08/29 07:35:31;;;;;;;9.75;7.22;;;;;;;15.54;100.00;100177.28;5960733;29;20180;-93
2023/08/29 07:38:33;;;;;;;10.38;7.68;;;;;;;15.66;100.00;100176.00;5978884;29;20505;-93
2023/08/29 07:41:35;;;;;;;7.82;7.03;;;;;;;15.83;100.00;100174.25;5981291;29;20047;-94
2023/08/29 07:44:37;;;;;;;9.85;7.53;;;;;;;15.84;100.00;100185.50;5980456;29;20492;-93
2023/08/29 07:47:39;;;;;;;9.20;7.45;;;;;;;15.87;100.00;100183.34;5968452;29;20501;-93
2023/08/29 07:50:41;;;;;;;9.30;7.53;;;;;;;15.99;100.00;100186.44;5981785;29;20497;-93
2023/08/29 07:53:43;;;;;;;8.93;7.57;;;;;;;16.10;100.00;100191.34;5971730;29;20126;-93
2023/08/29 07:56:45;;;;;;;8.52;7.72;;;;;;;16.20;100.00;100187.72;5974283;29;20163;-93
2023/08/29 07:59:46;;;;;;;8.50;7.70;;;;;;;16.30;100.00;100199.63;5975270;29;20064;-93
2023/08/29 08:02:48;;;;;;;8.10;7.20;;;;;;;16.35;100.00;100202.56;5976666;29;20063;-93
2023/08/29 08:05:50;;;;;;;8.10;7.30;;;;;;;16.39;100.00;100202.22;5973801;29;20117;-92
2023/08/29 08:08:54;;;;;;;7.97;7.13;;;;;;;16.43;100.00;100208.75;5976778;29;20055;-93
2023/08/29 08:11:56;;;;;;;10.55;7.00;;;;;;;16.46;100.00;100209.22;5990723;29;20046;-94
2023/08/29 08:14:59;;;;;;;7.55;6.55;;;;;;;16.49;100.00;100203.66;5982410;29;20066;-93
2023/08/29 08:18:01;;;;;;;8.18;7.38;;;;;;;16.58;100.00;100192.22;5983641;29;20042;-93
2023/08/29 08:21:03;;;;;;;8.25;7.35;;;;;;;16.70;100.00;100203.13;5982684;29;20481;-93
2023/08/29 08:24:07;;;;;;;9.13;6.75;;;;;;;16.82;100.00;100202.75;5973642;29;20043;-93
2023/08/29 08:27:09;;;;;;;7.30;6.30;;;;;;;16.94;100.00;100211.88;5975461;29;20054;-92
2023/08/29 08:30:11;;;;;;;6.38;5.78;;;;;;;17.12;100.00;100211.63;5984222;29;20046;-92
2023/08/29 08:33:13;;;;;;;8.50;6.00;;;;;;;17.20;100.00;100208.97;5984008;29;20134;-93
2023/08/29 08:36:15;;;;;;;7.05;5.95;;;;;;;17.35;100.00;100214.28;5981770;29;20106;-93
2023/08/29 08:39:17;;;;;;;6.50;5.85;;;;;;;17.40;100.00;100212.75;5991800;29;20056;-93
2023/08/29 08:42:19;;;;;;;9.15;6.20;;;;;;;17.52;100.00;100215.00;5973689;29;20051;-93
2023/08/29 08:45:22;;;;;;;9.70;6.03;;;;;;;17.65;100.00;100213.41;5965473;29;20133;-93
2023/08/29 08:48:25;;;;;;;7.70;5.90;;;;;;;17.76;100.00;100209.59;5971694;29;20141;-92
2023/08/29 08:51:29;;;;;;;9.05;5.60;;;;;;;17.83;100.00;100212.31;5977159;29;20070;-93
2023/08/29 08:54:31;;;;;;;8.27;5.20;;;;;;;17.97;100.00;100211.56;5979801;29;20046;-93
2023/08/29 08:57:33;;;;;;;6.68;5.20;;;;;;;18.08;100.00;100210.31;5982647;29;20047;-93
2023/08/29 09:00:35;;;;;;;6.63;4.75;;;;;;;18.22;100.00;100212.16;5972776;29;20099;-92
2023/08/29 09:03:38;;;;;;;5.93;5.32;;;;;;;18.41;100.00;100212.59;5983011;29;20137;-93
2023/08/29 09:06:40;;;;;;;4.55;3.50;;;;;;;18.60;100.00;100211.25;5970538;29;20046;-93
2023/08/29 09:09:42;;;;;;;4.15;3.20;;;;;;;18.63;100.00;100209.09;5973132;29;20399;-93
2023/08/29 09:12:52;;;;;;;7.22;3.80;;;;;;;18.73;100.00;100209.63;5974258;29;20054;-92
2023/08/29 09:15:54;;;;;;;5.13;3.58;;;;;;;18.84;100.00;100215.44;5978397;29;20429;-92
2023/08/29 09:18:57;;;;;;;4.82;3.50;;;;;;;18.91;100.00;100214.53;5987903;29;20049;-93
2023/08/29 09:21:59;;;;;;;4.45;4.05;;;;;;;18.94;100.00;100211.53;5989930;29;20399;-92
2023/08/29 09:25:03;;;;;;;9.63;4.72;;;;;;;18.98;100.00;100214.63;5981098;29;20046;-92
2023/08/29 09:28:10;;;;;;;9.52;4.30;;;;;;;18.91;100.00;100214.53;5978501;29;20042;-93
2023/08/29 09:31:14;;;;;;;4.28;3.88;;;;;;;18.77;100.00;100223.22;5978024;29;20054;-92
2023/08/29 09:34:27;;;;;;;4.60;4.00;;;;;;;18.77;100.00;100225.84;5970674;29;20498;-93
2023/08/29 09:37:29;;;;;;;4.90;3.80;;;;;;;18.76;100.00;100221.59;5964118;29;20867;-92
2023/08/29 09:40:43;;;;;;;10.50;4.28;;;;;;;18.78;100.00;100217.00;5965028;29;20046;-95
2023/08/29 09:43:50;;;;;;;2.78;2.03;;;;;;;18.80;100.00;100217.59;5988916;29;20327;-93
2023/08/29 09:46:52;;;;;;;2.28;1.88;;;;;;;18.90;100.00;100225.19;5971355;29;20042;-93
2023/08/29 09:49:54;;;;;;;3.47;2.28;;;;;;;19.09;100.00;100222.00;5969692;29;20121;-92
2023/08/29 09:52:57;;;;;;;2.60;1.98;;;;;;;19.30;100.00;100221.22;5975216;29;20425;-92
2023/08/29 09:56:03;;;;;;;5.15;2.90;;;;;;;19.64;100.00;100232.88;5976592;29;20057;-93
2023/08/29 09:59:11;;;;;;;4.03;2.08;;;;;;;19.85;100.00;100223.38;5973474;29;20074;-92
2023/08/29 10:02:14;;;;;;;2.25;1.63;;;;;;;19.99;100.00;100218.03;5978885;29;20049;-92
2023/08/29 10:05:22;;;;;;;4.57;1.85;;;;;;;20.19;100.00;100209.50;5980980;29;20050;-92
2023/08/29 10:08:31;;;;;;;1.83;1.63;;;;;;;20.37;100.00;100209.81;5979578;29;20054;-91
2023/08/29 10:11:33;;;;;;;3.38;2.47;;;;;;;20.51;100.00;100205.44;5980551;29;20053;-92
2023/08/29 10:14:51;;;;;;;2.42;2.13;;;;;;;20.54;100.00;100196.34;5979099;29;20133;-92
2023/08/29 10:17:55;;;;;;;4.07;1.88;;;;;;;20.53;100.00;100189.47;5975300;29;20050;-92
2023/08/29 10:20:59;;;;;;;3.63;2.47;;;;;;;20.43;100.00;100184.56;5973506;29;20435;-93
2023/08/29 10:24:05;;;;;;;3.45;2.25;;;;;;;20.34;100.00;100181.28;5978785;29;20478;-92
2023/08/29 10:27:07;;;;;;;2.72;2.08;;;;;;;20.19;100.00;100186.66;5976784;29;20125;-94
2023/08/29 10:30:09;;;;;;;3.03;2.13;;;;;;;20.18;100.00;100192.09;5969981;29;20046;-93
2023/08/29 10:33:11;;;;;;;1.70;1.60;;;;;;;20.15;100.00;100187.25;5972961;29;20046;-92
2023/08/29 10:36:13;;;;;;;2.53;1.50;;;;;;;20.26;100.00;100194.59;5974169;29;20054;-92
2023/08/29 10:39:15;;;;;;;2.50;1.70;;;;;;;20.39;100.00;100180.69;5964091;29;20134;-93
2023/08/29 10:42:17;;;;;;;2.05;1.90;;;;;;;20.63;100.00;100184.69;5963583;29;20506;-93
2023/08/29 10:45:21;;;;;;;2.08;1.58;;;;;;;20.68;100.00;100181.50;5977654;29;20086;-93
2023/08/29 10:48:43;;;;;;;2.35;1.92;;;;;;;20.63;100.00;100179.44;5978772;29;20042;-92
2023/08/29 10:52:06;;;;;;;8.20;2.50;;;;;;;20.70;100.00;100172.41;5975690;29;20110;-91
2023/08/29 10:55:28;;;;;;;2.40;1.67;;;;;;;20.74;100.00;100170.97;5976787;29;20058;-92
2023/08/29 10:58:44;;;;;;;2.45;1.88;;;;;;;20.82;100.00;100172.66;5983984;29;20042;-92
2023/08/29 11:01:46;;;;;;;3.17;1.85;;;;;;;20.94;100.00;100167.59;5967208;29;20506;-92
2023/08/29 11:04:54;;;;;;;4.28;1.60;;;;;;;21.20;100.00;100170.31;5960263;29;20043;-92
2023/08/29 11:08:22;;;;;;;1.67;1.57;;;;;;;21.53;100.00;100160.88;5982156;29;20046;-91
2023/08/29 11:11:24;;;;;;;1.75;1.33;;;;;;;21.59;100.00;100150.34;5970719;29;20294;-92
2023/08/29 11:14:46;;;;;;;1.55;1.40;;;;;;;21.70;100.00;100146.28;5972498;29;20058;-92
2023/08/29 11:18:23;;;;;;;1.80;1.20;;;;;;;21.93;100.00;100145.84;5964072;29;20545;-92
2023/08/29 11:21:25;;;;;;;3.65;1.52;;;;;;;21.92;100.00;100144.25;5964924;29;20054;-92
2023/08/29 11:24:27;;;;;;;2.47;1.30;;;;;;;21.84;100.00;100133.91;5972933;29;20050;-92
2023/08/29 11:27:29;;;;;;;1.75;1.15;;;;;;;21.68;100.00;100133.31;5985674;29;20053;-91
2023/08/29 11:30:33;;;;;;;1.35;1.00;;;;;;;21.62;100.00;100128.06;5981912;29;20061;-91
2023/08/29 11:33:52;;;;;;;1.20;1.17;;;;;;;21.68;100.00;100130.66;5982786;29;20050;-91
2023/08/29 11:36:54;;;;;;;2.85;1.10;;;;;;;21.61;100.00;100124.59;5991441;29;20061;-91
2023/08/29 11:39:58;;;;;;;2.67;1.20;;;;;;;21.66;100.00;100126.63;5983183;29;20050;-92
2023/08/29 11:43:01;;;;;;;1.60;1.20;;;;;;;21.76;100.00;100116.47;5981004;29;20053;-91
2023/08/29 11:46:31;;;;;;;1.63;1.20;;;;;;;21.86;100.00;100127.44;5978670;29;20054;-91
2023/08/29 11:49:34;;;;;;;1.30;1.00;;;;;;;21.99;100.00;100117.88;5983234;29;20079;-91
2023/08/29 11:52:37;;;;;;;1.58;1.00;;;;;;;22.04;100.00;100124.16;5983453;29;20058;-92
2023/08/29 11:55:38;;;;;;;0.88;0.88;;;;;;;22.06;100.00;100118.66;5982292;29;20054;-91
2023/08/29 11:58:41;;;;;;;1.83;0.90;;;;;;;22.00;100.00;100120.28;5975159;29;20413;-91
2023/08/29 12:01:43;;;;;;;1.08;0.90;;;;;;;21.83;100.00;100121.75;5981921;29;20045;-92
2023/08/29 12:04:46;;;;;;;2.67;1.10;;;;;;;21.70;100.00;100122.56;5963215;29;22059;-91
2023/08/29 12:07:53;;;;;;;3.00;1.05;;;;;;;21.57;100.00;100122.59;5977017;29;20042;-92
2023/08/29 12:10:55;;;;;;;1.27;1.00;;;;;;;21.60;100.00;100122.97;5983936;29;20123;-92
2023/08/29 12:14:07;;;;;;;0.98;0.88;;;;;;;21.66;100.00;100122.19;5980634;29;20054;-91
2023/08/29 12:17:09;;;;;;;0.77;0.70;;;;;;;21.76;100.00;100119.09;5965984;29;20051;-92
2023/08/29 12:20:11;;;;;;;1.40;0.80;;;;;;;21.94;100.00;100110.59;5978745;29;20532;-91
2023/08/29 12:23:13;;;;;;;1.45;0.90;;;;;;;22.22;100.00;100107.69;5973565;29;20046;-92
2023/08/29 12:26:14;;;;;;;1.13;0.60;;;;;;;22.58;100.00;100103.69;5979562;29;20058;-92
2023/08/29 12:29:17;;;;;;;1.08;0.95;;;;;;;22.74;100.00;100103.22;5974111;29;20553;-92
2023/08/29 12:32:25;;;;;;;0.95;0.85;;;;;;;23.12;100.00;100105.03;5971820;29;20047;-91
2023/08/29 12:35:27;;;;;;;2.60;0.98;;;;;;;23.38;100.00;100092.66;5981489;29;20107;-91
2023/08/29 12:38:30;;;;;;;1.38;0.90;;;;;;;23.07;100.00;100099.59;5986467;29;20389;-92
2023/08/29 12:41:32;;;;;;;1.23;0.63;;;;;;;23.02;100.00;100098.63;5987909;29;20493;-91
2023/08/29 12:44:34;;;;;;;1.20;0.65;;;;;;;23.20;100.00;100093.41;5982394;29;20050;-96
2023/08/29 12:47:42;;;;;;;1.05;0.80;;;;;;;23.02;100.00;100093.34;5972874;29;20550;-92
2023/08/29 12:50:45;;;;;;;1.02;0.80;;;;;;;22.80;100.00;100091.78;5992224;29;20132;-93
2023/08/29 12:53:49;;;;;;;0.82;0.63;;;;;;;22.54;100.00;100081.41;5980301;29;20055;-93
2023/08/29 12:56:51;;;;;;;1.17;0.88;;;;;;;22.44;100.00;100081.84;5972071;29;20176;-93
2023/08/29 12:59:52;;;;;;;1.55;0.60;;;;;;;22.54;100.00;100071.66;5977511;29;20137;-93
2023/08/29 13:02:54;;;;;;;0.75;0.60;;;;;;;22.35;100.00;100065.44;5982008;29;20121;-93
2023/08/29 13:05:57;;;;;;;1.63;0.85;;;;;;;22.56;100.00;100068.81;5973941;29;20688;-93
2023/08/29 13:08:59;;;;;;;1.23;0.93;;;;;;;23.01;100.00;100076.69;5975035;29;20615;-93
2023/08/29 13:12:00;;;;;;;0.93;0.80;;;;;;;23.20;100.00;100061.72;5985239;29;20038;-93
2023/08/29 13:15:05;;;;;;;1.33;0.70;;;;;;;22.91;100.00;100071.84;5967844;29;20059;-93
2023/08/29 13:18:07;;;;;;;0.85;0.70;;;;;;;23.32;100.00;100062.63;5962124;29;20051;-93
2023/08/29 13:21:11;;;;;;;1.70;1.00;;;;;;;23.90;100.00;100068.59;5977002;29;20050;-93
2023/08/29 13:24:12;;;;;;;1.55;0.88;;;;;;;24.22;100.00;100054.22;5980452;29;20050;-94
2023/08/29 13:27:14;;;;;;;0.93;0.80;;;;;;;24.46;98.97;100043.75;5976536;29;20407;-93
2023/08/29 13:30:17;;;;;;;1.95;0.93;;;;;;;24.11;100.00;100054.94;5995383;29;20054;-94
2023/08/29 13:33:19;;;;;;;2.15;0.95;;;;;;;23.63;100.00;100053.81;5974269;29;20106;-94
2023/08/29 13:36:21;;;;;;;1.33;0.70;;;;;;;23.21;100.00;100050.94;5981148;29;20042;-94
2023/08/29 13:39:23;;;;;;;0.80;0.60;;;;;;;22.85;100.00;100056.84;5971242;29;20050;-93
2023/08/29 13:42:26;;;;;;;0.77;0.60;;;;;;;23.05;100.00;100050.66;5976333;29;20046;-93
2023/08/29 13:45:29;;;;;;;0.85;0.80;;;;;;;23.67;100.00;100051.53;5984999;29;20399;-93
2023/08/29 13:48:31;;;;;;;0.98;0.80;;;;;;;24.06;100.00;100050.31;5971534;29;20126;-92
2023/08/29 13:51:33;;;;;;;1.40;0.70;;;;;;;24.39;100.00;100041.16;5972512;29;20046;-93
2023/08/29 13:54:35;;;;;;;1.33;0.60;;;;;;;24.74;100.00;100043.13;5965969;29;20075;-92
2023/08/29 13:57:37;;;;;;;1.30;0.80;;;;;;;25.14;100.00;100038.06;5979068;29;20050;-92
2023/08/29 14:00:39;;;;;;;1.63;0.70;;;;;;;25.32;100.00;100031.88;5974609;29;20049;-92
2023/08/29 14:03:42;;;;;;;0.88;0.70;;;;;;;25.41;100.00;100031.50;5972451;29;20046;-92